Pawnee, Texas
Current Conditions -  °F | °C
As of 10:15 AM on Wednesday 28 Jan 2015 (Local Time) from KBEA Reporting Station
Clear Clear  
Wind Chill: 67°   Ceiling: Unl
Heat Index: 67°   Visibility: 10mi
Dew Point: 45°   Wind: 8mph
Humidity: 45%   Direction: 200°SSW
Pressure: 30.2"   Gusts: NA
Location:  28.65°N, 98°W
Report Text: KBEA 281615Z AUTO 20007KT 10SM CLR 20/07 A3020 RMK AO2 T01970073
Loading
Personal Weather Stations






























Interactive Weather Map New forecast layout! Learn more

10-Day Weather Forecast

Advertisements
Track Severe Weather on mobile